• Join FlightAware (Why Join?)
  • Login
  • US Flag 
03:04PM EDT


 

Airport Tracker/Info


-or-


 

Live Flight TrackerFlight Track Log ✈ N27XP ✈ 19-May-2013 ✈ KRDU - KMKC

Flight Track Log - Related Links

Times and Time Zones

All times are in EDT time to prevent confusion due to time zone crossing. See the N27XP flight status page for this flight to view local times or setup timezone preferences in your user account.

Time Position Orientation Groundspeed Altitude Reporting Facility
EDT Latitude Longitude Course Direction KTS MPH feet Rate Location/Type
07:35PM 35.8542 -78.8108 226° Southwest 189 217 1,200  Level Washington Center
07:36PM 35.8217 -78.8531 226° Southwest 217 250 3,000 2,760 Climbing Washington Center
07:37PM 35.7819 -78.9281 237° Southwest 250 288 6,300 2,760 Climbing Washington Center
07:37PM 35.7575 -78.9833 241° Southwest 245 282 8,300 1,860 Climbing Washington Center
07:38PM 35.7569 -79.0756 270° West 257 296 9,900 1,740 Climbing Washington Center
07:39PM 35.7703 -79.1914 278° West 298 343 11,800 1,740 Climbing Washington Center
07:41PM 35.7883 -79.3797 277° West 324 373 14,600 1,680 Climbing Atlanta Center
07:42PM 35.7992 -79.4994 276° West 339 390 16,200 1,560 Climbing Atlanta Center
07:43PM 35.8094 -79.6139 276° West 344 396 17,800 1,620 Climbing Atlanta Center
07:44PM 35.8172 -79.7108 276° West 344 396 19,500 1,500 Climbing Atlanta Center
07:45PM 35.8275 -79.8308 276° West 350 403 20,900 1,620 Climbing Atlanta Center
07:46PM 35.8361 -79.9558 275° West 345 397 22,800 1,620 Climbing Atlanta Center
07:47PM 35.8439 -80.0656 275° West 340 391 24,200 1,140 Climbing Atlanta Center
07:48PM 35.8494 -80.1806 273° West 335 386 25,100 840 Climbing Atlanta Center
07:49PM 35.8672 -80.2822 282° West 343 395 25,900 900 Climbing Atlanta Center
07:50PM 35.9061 -80.3983 292° West 355 409 26,900 1,020 Climbing Atlanta Center
07:51PM 35.9428 -80.5044 293° West 355 409 28,000 900 Climbing Atlanta Center
07:52PM 35.9772 -80.6208 290° West 350 403 28,800 900 Climbing Atlanta Center
07:53PM 36.0136 -80.7297 292° West 355 409 29,900 1,080 Climbing Atlanta Center
07:54PM 36.0481 -80.8439 290° West 355 409 31,000 1,200 Climbing Atlanta Center
07:55PM 36.0822 -80.9556 291° West 347 399 32,300 1,080 Climbing Atlanta Center
07:56PM 36.1181 -81.0647 292° West 347 399 33,200 840 Climbing Atlanta Center
07:57PM 36.1522 -81.1767 291° West 347 399 34,000 780 Climbing Atlanta Center
07:58PM 36.1883 -81.2964 291° West 347 399 34,800 780 Climbing Atlanta Center
07:59PM 36.2219 -81.4083 290° West 342 394 35,600 600 Climbing Atlanta Center
08:00PM 36.2556 -81.5181 291° West 342 394 36,000 180 Climbing Atlanta Center
08:01PM 36.2808 -81.6408 284° West 353 406 36,000  Level Atlanta Center
08:02PM 36.3022 -81.7664 282° West 375 432 36,000  Level Atlanta Center
08:03PM 36.3211 -81.8947 280° West 380 437 36,000  Level Atlanta Center
08:04PM 36.3358 -82.0283 278° West 391 450 36,000  Level Atlanta Center
08:05PM 36.3547 -82.1619 280° West 396 456 36,000  Level Atlanta Center
08:06PM 36.3733 -82.3008 279° West 409 471 36,000  Level Atlanta Center
08:07PM 36.3919 -82.4397 279° West 409 471 36,000  Level Atlanta Center
08:08PM 36.4103 -82.5761 280° West 409 471 36,000  Level Atlanta Center
08:09PM 36.4286 -82.7150 279° West 409 471 36,000  Level Atlanta Center
08:10PM 36.4467 -82.8514 279° West 409 471 36,000  Level Atlanta Center
08:11PM 36.4647 -82.9933 279° West 409 471 36,000  Level Atlanta Center
08:12PM 36.4825 -83.1297 279° West 409 471 36,000  Level Atlanta Center
08:13PM 36.5000 -83.2717 279° West 409 471 36,000  Level Atlanta Center
08:14PM 36.5264 -83.4592 280° West 411 473 36,000  Level Indianapolis Center
08:15PM 36.5453 -83.5997 280° West 410 472 36,000  Level Indianapolis Center
08:16PM 36.5625 -83.7406 279° West 411 473 36,000  Level Indianapolis Center
08:17PM 36.5806 -83.8803 279° West 410 472 36,000  Level Indianapolis Center
08:19PM 36.5986 -84.0206 279° West 408 470 36,000  Level Indianapolis Center
08:20PM 36.6147 -84.1603 278° West 406 467 36,000  Level Indianapolis Center
08:21PM 36.6311 -84.2992 278° West 405 466 36,000 540 Level Indianapolis Center
08:22PM 36.6506 -84.4592 279° West 398 458 37,200 960 Climbing Indianapolis Center
08:23PM 36.6642 -84.5733 278° West 376 433 38,000 360 Climbing Indianapolis Center
08:24PM 36.6792 -84.7028 278° West 379 436 38,000  Level Indianapolis Center
08:25PM 36.6942 -84.8344 278° West 384 442 38,000  Level Indianapolis Center
08:26PM 36.7128 -84.9972 278° West 396 456 38,000  Level Indianapolis Center
08:27PM 36.7267 -85.1347 277° West 401 461 38,000  Level Indianapolis Center
08:28PM 36.7425 -85.2719 278° West 403 464 38,000  Level Indianapolis Center
08:29PM 36.7578 -85.4092 278° West 402 463 38,000  Level Indianapolis Center
08:30PM 36.7742 -85.5547 278° West 405 466 38,000  Level Memphis Center
08:31PM 36.7878 -85.6936 277° West 405 466 38,000  Level Memphis Center
08:32PM 36.8033 -85.8300 278° West 405 466 38,000  Level Memphis Center
08:33PM 36.8186 -85.9667 278° West 405 466 38,000  Level Memphis Center
08:34PM 36.8319 -86.1058 277° West 400 460 38,000  Level Memphis Center
08:35PM 36.8450 -86.2453 277° West 405 466 38,000  Level Memphis Center
08:36PM 36.8622 -86.3947 278° West 405 466 38,000  Level Memphis Center
08:37PM 36.8772 -86.5339 278° West 405 466 38,000  Level Memphis Center
08:38PM 36.8897 -86.6733 276° West 405 466 38,000  Level Memphis Center
08:39PM 36.9022 -86.8156 276° West 405 466 38,000  Level Memphis Center
08:40PM 36.9186 -86.9575 278° West 410 472 38,000  Level Memphis Center
08:42PM 36.9378 -87.1756 276° West 415 478 38,000  Level Kansas City Center
08:42PM 36.9450 -87.2444 277° West 420 483 38,000  Level Memphis Center
08:43PM 36.9589 -87.3869 277° West 420 483 38,000  Level Memphis Center
08:44PM 36.9725 -87.5292 277° West 420 483 38,000  Level Memphis Center
08:45PM 36.9861 -87.6767 277° West 425 489 38,000  Level Memphis Center
08:46PM 36.9975 -87.8192 276° West 420 483 38,000  Level Memphis Center
08:47PM 37.0131 -87.9667 278° West 425 489 38,000  Level Memphis Center
08:48PM 37.0217 -88.0964 275° West 425 489 38,000  Level Memphis Center
08:49PM 37.0367 -88.2414 277° West 425 489 38,000  Level Memphis Center
08:50PM 37.0497 -88.3894 276° West 425 489 38,000  Level Memphis Center
08:51PM 37.0622 -88.5347 276° West 425 489 38,000  Level Memphis Center
08:52PM 37.0725 -88.6800 275° West 425 489 38,000  Level Memphis Center
08:53PM 37.0828 -88.8281 275° West 425 489 38,000  Level Memphis Center
08:54PM 37.0969 -88.9733 277° West 425 489 38,000  Level Memphis Center
08:55PM 37.1069 -89.1189 275° West 425 489 38,000  Level Memphis Center
08:56PM 37.1186 -89.2617 276° West 425 489 38,000  Level Memphis Center
08:57PM 37.1283 -89.4047 275° West 425 489 38,000  Level Memphis Center
08:58PM 37.1397 -89.5503 276° West 425 489 38,000  Level Memphis Center
08:59PM 37.1511 -89.7114 275° West 425 489 38,000  Level Memphis Center
09:00PM 37.1600 -89.8519 275° West 420 483 38,000  Level Memphis Center
09:02PM 37.1794 -90.1397 275° West 416 479 38,000  Level Kansas City Center
09:03PM 37.1892 -90.2808 275° West 411 473 38,000  Level Kansas City Center
09:04PM 37.1986 -90.4222 275° West 410 472 38,000  Level Kansas City Center
09:05PM 37.2081 -90.5639 275° West 409 471 38,000  Level Kansas City Center
09:06PM 37.2161 -90.7069 274° West 410 472 38,000  Level Kansas City Center
09:07PM 37.2272 -90.8614 275° West 405 466 38,000  Level Kansas City Center
09:08PM 37.2358 -91.0025 274° West 403 464 38,000  Level Kansas City Center
09:09PM 37.2461 -91.1442 275° West 406 467 38,000  Level Kansas City Center
09:10PM 37.2511 -91.2894 273° West 410 472 38,000  Level Kansas City Center
09:11PM 37.2242 -91.4256 256° West 406 467 38,000  Level Kansas City Center
09:12PM 37.1781 -91.5561 246° West 408 470 38,000  Level Kansas City Center
09:13PM 37.1314 -91.6872 246° West 408 470 38,000  Level Kansas City Center
09:15PM 37.0389 -91.9525 246° West 412 474 38,000  Level Kansas City Center
09:16PM 36.9931 -92.0850 247° West 411 473 38,000  Level Kansas City Center
09:17PM 36.9458 -92.2183 246° West 415 478 38,000  Level Kansas City Center
09:18PM 36.8975 -92.3489 245° Southwest 414 476 38,000  Level Kansas City Center
09:19PM 36.8200 -92.4608 229° Southwest 418 481 38,000  Level Kansas City Center
09:20PM 36.7253 -92.5903 228° Southwest 418 481 38,000  Level Kansas City Center
09:21PM 36.6458 -92.6975 227° Southwest 419 482 38,000  Level Kansas City Center
09:22PM 36.5625 -92.8022 225° Southwest 423 487 38,000  Level Kansas City Center
09:23PM 36.5272 -92.8439 224° Southwest 427 491 38,000  Level Kansas City Center
09:23PM 36.4789 -92.9017 224° Southwest 428 493 38,000  Level Memphis Center
09:24PM 36.3786 -93.0017 219° Southwest 428 493 38,000  Level Memphis Center
09:25PM 36.2850 -93.0914 218° Southwest 422 486 38,000  Level Memphis Center
09:26PM 36.1914 -93.1833 218° Southwest 428 493 38,000  Level Memphis Center
09:27PM 36.0956 -93.2622 214° Southwest 428 493 38,000  Level Memphis Center
09:28PM 35.9939 -93.3306 209° Southwest 428 493 38,000  Level Memphis Center
09:29PM 35.8794 -93.4058 208° Southwest 428 493 38,000  Level Memphis Center
09:30PM 35.7758 -93.4736 208° Southwest 428 493 38,000  Level Memphis Center
09:31PM 35.6819 -93.5544 215° Southwest 423 487 38,000  Level Memphis Center
09:32PM 35.6514 -93.6836 254° West 378 435 38,000  Level Memphis Center
09:33PM 35.7025 -93.8006 298° West 336 387 38,000  Level Memphis Center
09:34PM 35.7942 -93.8786 325° Northwest 348 400 38,000  Level Memphis Center
09:35PM 35.8878 -93.9594 325° Northwest 368 423 38,000  Level Memphis Center
09:36PM 35.9833 -94.0431 325° Northwest 407 468 38,000  Level Memphis Center
09:37PM 36.0667 -94.1161 325° Northwest 413 475 38,000  Level Memphis Center
09:39PM 36.2397 -94.2211 334° Northwest 417 480 38,000  Level Kansas City Center
09:40PM 36.3319 -94.3094 322° Northwest 418 481 38,000  Level Kansas City Center
09:41PM 36.4164 -94.4075 317° Northwest 415 478 38,000  Level Kansas City Center
09:42PM 36.5042 -94.5006 320° Northwest 415 478 38,000  Level Kansas City Center
09:43PM 36.6092 -94.5625 335° Northwest 419 482 38,000  Level Kansas City Center
09:44PM 36.7267 -94.5964 347° North 429 494 38,000  Level Kansas City Center
09:45PM 36.8450 -94.6261 349° North 434 499 38,000  Level Kansas City Center
09:46PM 36.9661 -94.6439 353° North 438 504 38,000  Level Kansas City Center
09:47PM 37.0914 -94.6428 360° North 450 518 38,000 -720 Level Kansas City Center
09:48PM 37.2433 -94.6403 North 454 522 36,600 -1,320 Descending Kansas City Center
09:49PM 37.3622 -94.6317 North 442 509 35,300 -1,860 Descending Kansas City Center
09:50PM 37.4836 -94.6286 North 436 502 32,800 -2,220 Descending Kansas City Center
09:51PM 37.6092 -94.6292 360° North 449 517 30,900 -1,980 Descending Kansas City Center
09:52PM 37.7414 -94.6353 358° North 453 521 28,800 -1,980 Descending Kansas City Center
09:53PM 37.8622 -94.6383 359° North 454 522 26,900 -2,100 Descending Kansas City Center
09:54PM 37.9817 -94.6453 357° North 450 518 24,600 -2,460 Descending Kansas City Center
09:55PM 38.1203 -94.6525 358° North 446 513 22,000 -2,100 Descending Kansas City Center
09:56PM 38.2397 -94.6464 North 448 516 20,400 -1,740 Descending Kansas City Center
09:57PM 38.3697 -94.6469 360° North 417 480 18,500 -2,040 Descending Kansas City Center
09:58PM 38.4761 -94.6664 352° North 402 463 16,300 -2,400 Descending Kansas City Center
09:59PM 38.5858 -94.6661 360° North 413 475 13,700 -2,880 Descending Kansas City Center
10:00PM 38.7025 -94.6494 North 379 436 10,500 -2,700 Descending Kansas City Center
10:01PM 38.7917 -94.6308 North 340 391 8,300 -1,800 Descending Kansas City Center
10:02PM 38.8817 -94.5789 24° Northeast 314 361 6,900 -1,140 Descending Kansas City Center
10:03PM 38.9539 -94.5358 25° Northeast 303 349 6,100 -1,020 Descending Kansas City Center
10:04PM 39.0272 -94.4950 23° Northeast 300 345 4,900 -1,140 Descending Kansas City Center
10:05PM 39.1089 -94.4733 12° North 269 310 3,800 -960 Descending Kansas City Center
10:07PM 39.1733 -94.4600 North 244 281 3,000 -420 Descending Kansas City Center
10:08PM 39.2269 -94.4667 354° North 184 212 3,000  Level Kansas City Center
10:09PM 39.2472 -94.5108 301° West 151 174 3,000 -180 Level Kansas City Center
10:10PM 39.2328 -94.5486 244° Southwest 123 142 2,700 -480 Descending Kansas City Center
10:11PM 39.2014 -94.5686 206° Southwest 111 128 2,100 -540 Descending Kansas City Center
10:12PM 39.1736 -94.5792 196° South 109 125 1,600 -600 Descending Kansas City Center
10:13PM 39.1467 -94.5864 192° South 104 120 1,000 -360 Descending Kansas City Center
10:14PM 39.1189 -94.5953 194° South 104 120 900 -120 Descending Kansas City Center